sensor_id;sensor_type;location;lat;lon;timestamp;P1;durP1;ratioP1;P2;durP2;ratioP2
3949;SDS011;53057;50.988;6.314;2023-04-12T00:00:39;8.03;;;1.73;;
3949;SDS011;53057;50.988;6.314;2023-04-12T00:03:07;2.33;;;1.30;;
3949;SDS011;53057;50.988;6.314;2023-04-12T00:05:35;6.63;;;1.63;;
3949;SDS011;53057;50.988;6.314;2023-04-12T00:08:02;7.83;;;1.90;;
3949;SDS011;53057;50.988;6.314;2023-04-12T00:10:30;6.47;;;2.37;;
3949;SDS011;53057;50.988;6.314;2023-04-12T00:12:57;2.10;;;1.30;;
3949;SDS011;53057;50.988;6.314;2023-04-12T00:15:23;5.50;;;1.67;;
3949;SDS011;53057;50.988;6.314;2023-04-12T00:17:50;3.43;;;1.67;;
3949;SDS011;53057;50.988;6.314;2023-04-12T00:20:16;10.83;;;1.50;;
3949;SDS011;53057;50.988;6.314;2023-04-12T00:22:43;7.67;;;2.40;;
3949;SDS011;53057;50.988;6.314;2023-04-12T00:25:10;6.10;;;1.80;;
3949;SDS011;53057;50.988;6.314;2023-04-12T00:27:37;3.80;;;1.70;;
3949;SDS011;53057;50.988;6.314;2023-04-12T00:30:04;9.13;;;1.47;;
3949;SDS011;53057;50.988;6.314;2023-04-12T00:32:32;6.97;;;1.73;;
3949;SDS011;53057;50.988;6.314;2023-04-12T00:34:59;7.50;;;2.20;;
3949;SDS011;53057;50.988;6.314;2023-04-12T00:37:25;4.87;;;1.70;;
3949;SDS011;53057;50.988;6.314;2023-04-12T00:39:52;10.67;;;2.03;;
3949;SDS011;53057;50.988;6.314;2023-04-12T00:42:18;2.00;;;1.23;;
3949;SDS011;53057;50.988;6.314;2023-04-12T00:44:45;6.50;;;1.37;;
3949;SDS011;53057;50.988;6.314;2023-04-12T00:47:11;5.47;;;1.60;;
3949;SDS011;53057;50.988;6.314;2023-04-12T00:49:38;3.60;;;2.07;;
3949;SDS011;53057;50.988;6.314;2023-04-12T00:52:09;2.17;;;1.20;;
3949;SDS011;53057;50.988;6.314;2023-04-12T00:54:40;5.67;;;1.40;;
3949;SDS011;53057;50.988;6.314;2023-04-12T00:57:09;4.40;;;1.53;;
3949;SDS011;53057;50.988;6.314;2023-04-12T00:59:36;6.50;;;1.87;;
3949;SDS011;53057;50.988;6.314;2023-04-12T01:02:02;5.50;;;1.90;;
3949;SDS011;53057;50.988;6.314;2023-04-12T01:04:29;1.73;;;1.07;;
3949;SDS011;53057;50.988;6.314;2023-04-12T01:07:13;5.77;;;1.30;;
3949;SDS011;53057;50.988;6.314;2023-04-12T01:09:50;7.83;;;1.40;;
3949;SDS011;53057;50.988;6.314;2023-04-12T01:14:57;1.60;;;1.00;;
3949;SDS011;53057;50.988;6.314;2023-04-12T01:17:27;4.83;;;1.30;;
3949;SDS011;53057;50.988;6.314;2023-04-12T01:19:57;7.27;;;1.40;;
3949;SDS011;53057;50.988;6.314;2023-04-12T01:27:50;8.30;;;1.10;;
3949;SDS011;53057;50.988;6.314;2023-04-12T01:30:18;3.53;;;1.37;;
3949;SDS011;53057;50.988;6.314;2023-04-12T01:32:47;4.80;;;1.70;;
3949;SDS011;53057;50.988;6.314;2023-04-12T01:35:17;6.33;;;2.10;;
3949;SDS011;53057;50.988;6.314;2023-04-12T01:37:44;3.63;;;1.50;;
3949;SDS011;53057;50.988;6.314;2023-04-12T01:40:11;7.13;;;1.23;;
3949;SDS011;53057;50.988;6.314;2023-04-12T01:42:38;5.30;;;1.10;;
3949;SDS011;53057;50.988;6.314;2023-04-12T01:45:05;2.93;;;0.80;;
3949;SDS011;53057;50.988;6.314;2023-04-12T01:47:32;1.43;;;1.00;;
3949;SDS011;53057;50.988;6.314;2023-04-12T01:52:42;6.50;;;1.47;;
3949;SDS011;53057;50.988;6.314;2023-04-12T01:55:11;2.03;;;1.13;;
3949;SDS011;53057;50.988;6.314;2023-04-12T01:57:38;1.70;;;1.30;;
3949;SDS011;53057;50.988;6.314;2023-04-12T02:00:05;2.27;;;1.20;;
3949;SDS011;53057;50.988;6.314;2023-04-12T02:02:38;2.20;;;0.83;;
3949;SDS011;53057;50.988;6.314;2023-04-12T02:05:06;3.57;;;1.20;;
3949;SDS011;53057;50.988;6.314;2023-04-12T02:07:34;2.53;;;0.90;;
3949;SDS011;53057;50.988;6.314;2023-04-12T02:10:02;1.33;;;1.10;;
3949;SDS011;53057;50.988;6.314;2023-04-12T02:12:29;5.60;;;1.00;;
3949;SDS011;53057;50.988;6.314;2023-04-12T02:14:56;1.53;;;0.90;;
3949;SDS011;53057;50.988;6.314;2023-04-12T02:17:23;3.37;;;0.97;;
3949;SDS011;53057;50.988;6.314;2023-04-12T02:19:50;7.93;;;1.03;;
3949;SDS011;53057;50.988;6.314;2023-04-12T02:22:17;2.83;;;0.90;;
3949;SDS011;53057;50.988;6.314;2023-04-12T02:24:44;3.00;;;0.87;;
3949;SDS011;53057;50.988;6.314;2023-04-12T02:27:11;1.53;;;0.90;;
3949;SDS011;53057;50.988;6.314;2023-04-12T02:29:37;1.27;;;1.17;;
3949;SDS011;53057;50.988;6.314;2023-04-12T02:32:04;4.07;;;1.13;;
3949;SDS011;53057;50.988;6.314;2023-04-12T02:34:32;8.23;;;1.73;;
3949;SDS011;53057;50.988;6.314;2023-04-12T02:37:13;2.17;;;1.30;;
3949;SDS011;53057;50.988;6.314;2023-04-12T02:39:43;1.70;;;0.90;;
3949;SDS011;53057;50.988;6.314;2023-04-12T02:42:10;4.13;;;1.07;;
3949;SDS011;53057;50.988;6.314;2023-04-12T02:44:49;3.70;;;1.70;;
3949;SDS011;53057;50.988;6.314;2023-04-12T02:47:16;5.20;;;1.67;;
3949;SDS011;53057;50.988;6.314;2023-04-12T02:49:45;3.90;;;1.10;;
3949;SDS011;53057;50.988;6.314;2023-04-12T02:52:15;4.00;;;2.07;;
3949;SDS011;53057;50.988;6.314;2023-04-12T02:54:58;1.27;;;1.13;;
3949;SDS011;53057;50.988;6.314;2023-04-12T02:57:25;2.23;;;1.13;;
3949;SDS011;53057;50.988;6.314;2023-04-12T02:59:51;6.70;;;1.00;;
3949;SDS011;53057;50.988;6.314;2023-04-12T03:02:24;1.73;;;0.80;;
3949;SDS011;53057;50.988;6.314;2023-04-12T03:04:56;2.73;;;1.07;;
3949;SDS011;53057;50.988;6.314;2023-04-12T03:07:33;1.63;;;0.70;;
3949;SDS011;53057;50.988;6.314;2023-04-12T03:10:01;1.23;;;1.00;;
3949;SDS011;53057;50.988;6.314;2023-04-12T03:12:28;3.70;;;0.90;;
3949;SDS011;53057;50.988;6.314;2023-04-12T03:15:17;2.20;;;1.07;;
3949;SDS011;53057;50.988;6.314;2023-04-12T03:17:46;2.70;;;0.70;;
3949;SDS011;53057;50.988;6.314;2023-04-12T03:20:16;0.80;;;0.77;;
3949;SDS011;53057;50.988;6.314;2023-04-12T03:22:50;1.10;;;0.90;;
3949;SDS011;53057;50.988;6.314;2023-04-12T03:25:16;0.67;;;0.67;;
3949;SDS011;53057;50.988;6.314;2023-04-12T03:27:50;3.23;;;0.83;;
3949;SDS011;53057;50.988;6.314;2023-04-12T03:30:20;1.27;;;0.70;;
3949;SDS011;53057;50.988;6.314;2023-04-12T03:32:48;1.20;;;0.90;;
3949;SDS011;53057;50.988;6.314;2023-04-12T03:35:16;0.80;;;0.70;;
3949;SDS011;53057;50.988;6.314;2023-04-12T03:37:43;0.70;;;0.60;;
3949;SDS011;53057;50.988;6.314;2023-04-12T03:40:10;1.63;;;0.97;;
3949;SDS011;53057;50.988;6.314;2023-04-12T03:42:41;2.60;;;0.80;;
3949;SDS011;53057;50.988;6.314;2023-04-12T03:45:12;1.77;;;0.80;;
3949;SDS011;53057;50.988;6.314;2023-04-12T03:47:43;3.43;;;0.93;;
3949;SDS011;53057;50.988;6.314;2023-04-12T03:50:11;2.97;;;0.80;;
3949;SDS011;53057;50.988;6.314;2023-04-12T03:52:43;1.20;;;0.80;;
3949;SDS011;53057;50.988;6.314;2023-04-12T03:55:10;6.93;;;0.77;;
3949;SDS011;53057;50.988;6.314;2023-04-12T03:57:39;1.43;;;0.77;;
3949;SDS011;53057;50.988;6.314;2023-04-12T04:00:06;0.90;;;0.80;;
3949;SDS011;53057;50.988;6.314;2023-04-12T04:02:52;0.97;;;0.60;;
3949;SDS011;53057;50.988;6.314;2023-04-12T04:05:19;0.83;;;0.83;;
3949;SDS011;53057;50.988;6.314;2023-04-12T04:07:47;2.20;;;0.90;;
3949;SDS011;53057;50.988;6.314;2023-04-12T04:10:14;1.90;;;0.77;;
3949;SDS011;53057;50.988;6.314;2023-04-12T04:12:43;1.10;;;1.00;;
3949;SDS011;53057;50.988;6.314;2023-04-12T04:15:10;3.53;;;1.00;;
3949;SDS011;53057;50.988;6.314;2023-04-12T04:17:38;1.10;;;0.83;;
3949;SDS011;53057;50.988;6.314;2023-04-12T04:20:05;1.00;;;0.83;;
3949;SDS011;53057;50.988;6.314;2023-04-12T04:22:36;2.83;;;1.00;;
3949;SDS011;53057;50.988;6.314;2023-04-12T04:25:03;1.53;;;1.23;;
3949;SDS011;53057;50.988;6.314;2023-04-12T04:27:34;1.07;;;0.93;;
3949;SDS011;53057;50.988;6.314;2023-04-12T04:30:05;1.80;;;1.50;;
3949;SDS011;53057;50.988;6.314;2023-04-12T04:32:32;2.60;;;1.00;;
3949;SDS011;53057;50.988;6.314;2023-04-12T04:34:59;1.87;;;1.10;;
3949;SDS011;53057;50.988;6.314;2023-04-12T04:37:36;2.17;;;1.30;;
3949;SDS011;53057;50.988;6.314;2023-04-12T04:40:03;4.87;;;0.90;;
3949;SDS011;53057;50.988;6.314;2023-04-12T04:42:48;2.00;;;0.87;;
3949;SDS011;53057;50.988;6.314;2023-04-12T04:45:23;3.47;;;0.90;;
3949;SDS011;53057;50.988;6.314;2023-04-12T04:47:53;2.70;;;1.00;;
3949;SDS011;53057;50.988;6.314;2023-04-12T04:50:20;11.93;;;1.23;;
3949;SDS011;53057;50.988;6.314;2023-04-12T04:52:49;1.90;;;1.57;;
3949;SDS011;53057;50.988;6.314;2023-04-12T04:55:19;1.83;;;1.07;;
3949;SDS011;53057;50.988;6.314;2023-04-12T04:57:52;1.30;;;1.20;;
3949;SDS011;53057;50.988;6.314;2023-04-12T05:00:19;4.13;;;0.90;;
3949;SDS011;53057;50.988;6.314;2023-04-12T05:02:52;1.53;;;1.10;;
3949;SDS011;53057;50.988;6.314;2023-04-12T05:05:25;0.80;;;0.80;;
3949;SDS011;53057;50.988;6.314;2023-04-12T05:08:00;2.30;;;1.77;;
3949;SDS011;53057;50.988;6.314;2023-04-12T05:10:29;1.83;;;1.10;;
3949;SDS011;53057;50.988;6.314;2023-04-12T05:12:59;1.40;;;1.30;;
3949;SDS011;53057;50.988;6.314;2023-04-12T05:15:28;1.63;;;1.53;;
3949;SDS011;53057;50.988;6.314;2023-04-12T05:17:55;4.80;;;1.57;;
3949;SDS011;53057;50.988;6.314;2023-04-12T05:20:21;1.93;;;1.27;;
3949;SDS011;53057;50.988;6.314;2023-04-12T05:22:48;1.50;;;1.23;;
3949;SDS011;53057;50.988;6.314;2023-04-12T05:25:15;2.30;;;1.50;;
3949;SDS011;53057;50.988;6.314;2023-04-12T05:27:49;1.00;;;0.80;;
3949;SDS011;53057;50.988;6.314;2023-04-12T05:30:18;3.70;;;2.40;;
3949;SDS011;53057;50.988;6.314;2023-04-12T05:32:45;3.90;;;1.30;;
3949;SDS011;53057;50.988;6.314;2023-04-12T05:35:14;5.40;;;1.90;;
3949;SDS011;53057;50.988;6.314;2023-04-12T05:37:42;4.83;;;1.50;;
3949;SDS011;53057;50.988;6.314;2023-04-12T05:40:08;1.50;;;1.40;;
3949;SDS011;53057;50.988;6.314;2023-04-12T05:42:36;2.10;;;1.10;;
3949;SDS011;53057;50.988;6.314;2023-04-12T05:45:03;4.20;;;1.30;;
3949;SDS011;53057;50.988;6.314;2023-04-12T05:47:32;0.80;;;0.80;;
3949;SDS011;53057;50.988;6.314;2023-04-12T05:49:59;1.20;;;0.90;;
3949;SDS011;53057;50.988;6.314;2023-04-12T05:52:26;1.93;;;0.90;;
3949;SDS011;53057;50.988;6.314;2023-04-12T05:54:52;1.20;;;1.10;;
3949;SDS011;53057;50.988;6.314;2023-04-12T05:57:21;2.10;;;1.33;;
3949;SDS011;53057;50.988;6.314;2023-04-12T05:59:48;1.13;;;1.07;;
3949;SDS011;53057;50.988;6.314;2023-04-12T06:02:16;6.03;;;1.37;;
3949;SDS011;53057;50.988;6.314;2023-04-12T06:04:44;1.23;;;1.10;;
3949;SDS011;53057;50.988;6.314;2023-04-12T06:07:16;1.13;;;0.70;;
3949;SDS011;53057;50.988;6.314;2023-04-12T06:09:45;0.80;;;0.80;;
3949;SDS011;53057;50.988;6.314;2023-04-12T06:12:12;1.33;;;1.10;;
3949;SDS011;53057;50.988;6.314;2023-04-12T06:14:43;1.23;;;1.13;;
3949;SDS011;53057;50.988;6.314;2023-04-12T06:17:10;1.23;;;1.00;;
3949;SDS011;53057;50.988;6.314;2023-04-12T06:19:38;1.77;;;1.00;;
3949;SDS011;53057;50.988;6.314;2023-04-12T06:22:05;4.20;;;0.80;;
3949;SDS011;53057;50.988;6.314;2023-04-12T06:24:32;1.10;;;0.90;;
3949;SDS011;53057;50.988;6.314;2023-04-12T06:26:58;1.43;;;0.90;;
3949;SDS011;53057;50.988;6.314;2023-04-12T06:29:25;1.63;;;1.00;;
3949;SDS011;53057;50.988;6.314;2023-04-12T06:31:51;1.13;;;1.00;;
3949;SDS011;53057;50.988;6.314;2023-04-12T06:34:18;0.90;;;0.90;;
3949;SDS011;53057;50.988;6.314;2023-04-12T06:36:45;1.00;;;0.90;;
3949;SDS011;53057;50.988;6.314;2023-04-12T06:39:13;3.00;;;0.80;;
3949;SDS011;53057;50.988;6.314;2023-04-12T06:41:41;0.87;;;0.87;;
3949;SDS011;53057;50.988;6.314;2023-04-12T06:44:09;1.33;;;0.90;;
3949;SDS011;53057;50.988;6.314;2023-04-12T06:46:36;0.80;;;0.80;;
3949;SDS011;53057;50.988;6.314;2023-04-12T06:49:03;1.27;;;0.70;;
3949;SDS011;53057;50.988;6.314;2023-04-12T06:51:30;0.70;;;0.70;;
3949;SDS011;53057;50.988;6.314;2023-04-12T06:53:56;1.23;;;1.10;;
3949;SDS011;53057;50.988;6.314;2023-04-12T06:56:23;2.10;;;1.00;;
3949;SDS011;53057;50.988;6.314;2023-04-12T06:58:49;2.17;;;0.80;;
3949;SDS011;53057;50.988;6.314;2023-04-12T07:01:16;1.40;;;0.63;;
3949;SDS011;53057;50.988;6.314;2023-04-12T07:03:43;3.23;;;1.10;;
3949;SDS011;53057;50.988;6.314;2023-04-12T07:06:09;1.20;;;1.10;;
3949;SDS011;53057;50.988;6.314;2023-04-12T07:08:50;2.07;;;1.00;;
3949;SDS011;53057;50.988;6.314;2023-04-12T07:11:18;2.70;;;0.93;;
3949;SDS011;53057;50.988;6.314;2023-04-12T07:13:47;5.43;;;1.10;;
3949;SDS011;53057;50.988;6.314;2023-04-12T07:16:14;2.07;;;1.00;;
3949;SDS011;53057;50.988;6.314;2023-04-12T07:18:41;1.10;;;1.00;;
3949;SDS011;53057;50.988;6.314;2023-04-12T07:21:08;3.93;;;1.10;;
3949;SDS011;53057;50.988;6.314;2023-04-12T07:23:34;1.30;;;0.83;;
3949;SDS011;53057;50.988;6.314;2023-04-12T07:26:01;2.07;;;0.83;;
3949;SDS011;53057;50.988;6.314;2023-04-12T07:28:27;1.23;;;1.00;;
3949;SDS011;53057;50.988;6.314;2023-04-12T07:30:54;0.90;;;0.90;;
3949;SDS011;53057;50.988;6.314;2023-04-12T07:33:20;3.23;;;1.37;;
3949;SDS011;53057;50.988;6.314;2023-04-12T07:35:47;1.00;;;0.90;;
3949;SDS011;53057;50.988;6.314;2023-04-12T07:38:14;3.13;;;1.13;;
3949;SDS011;53057;50.988;6.314;2023-04-12T07:40:42;3.17;;;1.20;;
3949;SDS011;53057;50.988;6.314;2023-04-12T07:43:09;3.00;;;2.63;;
3949;SDS011;53057;50.988;6.314;2023-04-12T07:45:35;2.33;;;2.13;;
3949;SDS011;53057;50.988;6.314;2023-04-12T07:48:03;1.40;;;1.30;;
3949;SDS011;53057;50.988;6.314;2023-04-12T07:50:29;21.27;;;2.40;;
3949;SDS011;53057;50.988;6.314;2023-04-12T07:53:30;5.43;;;1.30;;
3949;SDS011;53057;50.988;6.314;2023-04-12T07:55:49;3.33;;;3.13;;
3949;SDS011;53057;50.988;6.314;2023-04-12T07:58:16;2.70;;;0.90;;
3949;SDS011;53057;50.988;6.314;2023-04-12T08:00:43;2.60;;;0.80;;
3949;SDS011;53057;50.988;6.314;2023-04-12T08:03:11;1.20;;;1.10;;
3949;SDS011;53057;50.988;6.314;2023-04-12T08:05:38;1.77;;;1.50;;
3949;SDS011;53057;50.988;6.314;2023-04-12T08:08:06;3.30;;;0.93;;
3949;SDS011;53057;50.988;6.314;2023-04-12T08:10:33;6.47;;;2.57;;
3949;SDS011;53057;50.988;6.314;2023-04-12T08:13:00;6.63;;;6.03;;
3949;SDS011;53057;50.988;6.314;2023-04-12T08:15:27;7.20;;;6.57;;
3949;SDS011;53057;50.988;6.314;2023-04-12T08:17:53;6.73;;;4.90;;
3949;SDS011;53057;50.988;6.314;2023-04-12T08:20:20;4.83;;;4.33;;
3949;SDS011;53057;50.988;6.314;2023-04-12T08:22:47;7.33;;;6.67;;
3949;SDS011;53057;50.988;6.314;2023-04-12T08:25:14;1.53;;;1.43;;
3949;SDS011;53057;50.988;6.314;2023-04-12T08:27:41;2.10;;;0.80;;
3949;SDS011;53057;50.988;6.314;2023-04-12T08:30:08;1.90;;;0.70;;
3949;SDS011;53057;50.988;6.314;2023-04-12T08:32:35;1.03;;;0.60;;
3949;SDS011;53057;50.988;6.314;2023-04-12T08:35:06;0.63;;;0.60;;
3949;SDS011;53057;50.988;6.314;2023-04-12T08:37:33;2.63;;;0.73;;
3949;SDS011;53057;50.988;6.314;2023-04-12T08:40:01;0.70;;;0.60;;
3949;SDS011;53057;50.988;6.314;2023-04-12T08:42:29;0.60;;;0.60;;
3949;SDS011;53057;50.988;6.314;2023-04-12T08:44:57;6.53;;;1.47;;
3949;SDS011;53057;50.988;6.314;2023-04-12T08:47:23;3.43;;;0.70;;
3949;SDS011;53057;50.988;6.314;2023-04-12T08:49:50;1.30;;;0.80;;
3949;SDS011;53057;50.988;6.314;2023-04-12T08:52:17;0.67;;;0.67;;
3949;SDS011;53057;50.988;6.314;2023-04-12T08:54:44;0.70;;;0.70;;
3949;SDS011;53057;50.988;6.314;2023-04-12T08:57:11;2.37;;;1.00;;
3949;SDS011;53057;50.988;6.314;2023-04-12T08:59:38;1.10;;;1.00;;
3949;SDS011;53057;50.988;6.314;2023-04-12T09:02:07;1.00;;;1.00;;
3949;SDS011;53057;50.988;6.314;2023-04-12T09:04:45;0.73;;;0.73;;
3949;SDS011;53057;50.988;6.314;2023-04-12T09:07:12;0.80;;;0.80;;
3949;SDS011;53057;50.988;6.314;2023-04-12T09:09:39;0.90;;;0.50;;
3949;SDS011;53057;50.988;6.314;2023-04-12T09:12:06;1.63;;;0.90;;
3949;SDS011;53057;50.988;6.314;2023-04-12T09:14:33;3.30;;;0.70;;
3949;SDS011;53057;50.988;6.314;2023-04-12T09:16:59;4.30;;;1.00;;
3949;SDS011;53057;50.988;6.314;2023-04-12T09:19:33;1.07;;;0.80;;
3949;SDS011;53057;50.988;6.314;2023-04-12T09:22:00;1.20;;;1.10;;
3949;SDS011;53057;50.988;6.314;2023-04-12T09:24:27;1.87;;;1.00;;
3949;SDS011;53057;50.988;6.314;2023-04-12T09:27:01;2.10;;;1.00;;
3949;SDS011;53057;50.988;6.314;2023-04-12T09:29:29;2.40;;;1.03;;
3949;SDS011;53057;50.988;6.314;2023-04-12T09:31:58;0.80;;;0.80;;
3949;SDS011;53057;50.988;6.314;2023-04-12T09:34:25;0.93;;;0.93;;
3949;SDS011;53057;50.988;6.314;2023-04-12T09:36:53;2.23;;;1.33;;
3949;SDS011;53057;50.988;6.314;2023-04-12T09:39:28;3.47;;;2.10;;
3949;SDS011;53057;50.988;6.314;2023-04-12T09:42:08;8.63;;;3.23;;
3949;SDS011;53057;50.988;6.314;2023-04-12T09:44:55;7.60;;;3.23;;
3949;SDS011;53057;50.988;6.314;2023-04-12T09:47:37;10.90;;;5.40;;
3949;SDS011;53057;50.988;6.314;2023-04-12T09:50:06;9.90;;;4.80;;
3949;SDS011;53057;50.988;6.314;2023-04-12T09:52:37;10.60;;;4.30;;
3949;SDS011;53057;50.988;6.314;2023-04-12T09:55:06;12.73;;;5.33;;
3949;SDS011;53057;50.988;6.314;2023-04-12T09:57:36;12.40;;;3.93;;
3949;SDS011;53057;50.988;6.314;2023-04-12T10:00:03;14.40;;;5.23;;
3949;SDS011;53057;50.988;6.314;2023-04-12T10:02:36;9.63;;;3.70;;
3949;SDS011;53057;50.988;6.314;2023-04-12T10:05:03;9.43;;;5.23;;
3949;SDS011;53057;50.988;6.314;2023-04-12T10:07:31;11.10;;;4.00;;
3949;SDS011;53057;50.988;6.314;2023-04-12T10:10:01;10.40;;;3.93;;
3949;SDS011;53057;50.988;6.314;2023-04-12T10:12:29;15.07;;;4.53;;
3949;SDS011;53057;50.988;6.314;2023-04-12T10:14:56;13.87;;;4.43;;
3949;SDS011;53057;50.988;6.314;2023-04-12T10:17:23;10.00;;;5.57;;
3949;SDS011;53057;50.988;6.314;2023-04-12T10:19:51;11.13;;;5.13;;
3949;SDS011;53057;50.988;6.314;2023-04-12T10:22:18;18.83;;;5.33;;
3949;SDS011;53057;50.988;6.314;2023-04-12T10:24:45;10.00;;;5.70;;
3949;SDS011;53057;50.988;6.314;2023-04-12T10:27:12;16.10;;;6.20;;
3949;SDS011;53057;50.988;6.314;2023-04-12T10:29:38;10.83;;;5.73;;
3949;SDS011;53057;50.988;6.314;2023-04-12T10:32:23;10.83;;;6.03;;
3949;SDS011;53057;50.988;6.314;2023-04-12T10:34:55;10.40;;;5.30;;
3949;SDS011;53057;50.988;6.314;2023-04-12T10:40:12;10.40;;;4.90;;
3949;SDS011;53057;50.988;6.314;2023-04-12T10:42:41;11.13;;;4.57;;
3949;SDS011;53057;50.988;6.314;2023-04-12T10:53:18;10.40;;;3.47;;
3949;SDS011;53057;50.988;6.314;2023-04-12T10:55:53;12.57;;;3.20;;
3949;SDS011;53057;50.988;6.314;2023-04-12T11:01:10;10.77;;;2.93;;
3949;SDS011;53057;50.988;6.314;2023-04-12T11:04:03;14.50;;;3.70;;
3949;SDS011;53057;50.988;6.314;2023-04-12T11:06:39;19.20;;;4.00;;
3949;SDS011;53057;50.988;6.314;2023-04-12T11:09:28;15.07;;;3.03;;
3949;SDS011;53057;50.988;6.314;2023-04-12T11:11:56;13.90;;;3.63;;
3949;SDS011;53057;50.988;6.314;2023-04-12T11:14:27;22.90;;;2.90;;
3949;SDS011;53057;50.988;6.314;2023-04-12T11:19:56;13.87;;;3.47;;
3949;SDS011;53057;50.988;6.314;2023-04-12T11:22:24;19.43;;;3.80;;
3949;SDS011;53057;50.988;6.314;2023-04-12T11:24:52;14.80;;;2.40;;
3949;SDS011;53057;50.988;6.314;2023-04-12T11:27:19;8.37;;;3.93;;
3949;SDS011;53057;50.988;6.314;2023-04-12T11:29:49;14.67;;;3.30;;
3949;SDS011;53057;50.988;6.314;2023-04-12T11:32:17;10.00;;;2.53;;
3949;SDS011;53057;50.988;6.314;2023-04-12T11:34:44;20.90;;;3.13;;
3949;SDS011;53057;50.988;6.314;2023-04-12T11:37:12;13.67;;;3.20;;
3949;SDS011;53057;50.988;6.314;2023-04-12T11:39:42;21.00;;;4.23;;
3949;SDS011;53057;50.988;6.314;2023-04-12T11:42:13;6.87;;;3.13;;
3949;SDS011;53057;50.988;6.314;2023-04-12T11:44:41;7.57;;;2.10;;
3949;SDS011;53057;50.988;6.314;2023-04-12T11:47:22;12.83;;;3.03;;
3949;SDS011;53057;50.988;6.314;2023-04-12T11:49:51;6.93;;;2.60;;
3949;SDS011;53057;50.988;6.314;2023-04-12T11:52:18;11.03;;;2.37;;
3949;SDS011;53057;50.988;6.314;2023-04-12T11:54:45;16.33;;;3.30;;
3949;SDS011;53057;50.988;6.314;2023-04-12T11:57:15;18.27;;;6.77;;
3949;SDS011;53057;50.988;6.314;2023-04-12T11:59:43;15.40;;;4.63;;
3949;SDS011;53057;50.988;6.314;2023-04-12T12:02:10;20.83;;;6.00;;
3949;SDS011;53057;50.988;6.314;2023-04-12T12:04:49;19.00;;;4.90;;
3949;SDS011;53057;50.988;6.314;2023-04-12T12:07:16;11.43;;;3.13;;
3949;SDS011;53057;50.988;6.314;2023-04-12T12:09:43;15.70;;;4.53;;
3949;SDS011;53057;50.988;6.314;2023-04-12T12:12:11;21.60;;;3.53;;
3949;SDS011;53057;50.988;6.314;2023-04-12T12:14:38;14.40;;;3.97;;
3949;SDS011;53057;50.988;6.314;2023-04-12T12:17:09;14.00;;;4.90;;
3949;SDS011;53057;50.988;6.314;2023-04-12T12:19:40;16.63;;;2.93;;
3949;SDS011;53057;50.988;6.314;2023-04-12T12:22:14;10.93;;;3.13;;
3949;SDS011;53057;50.988;6.314;2023-04-12T12:24:53;10.77;;;3.30;;
3949;SDS011;53057;50.988;6.314;2023-04-12T12:27:21;9.50;;;2.00;;
3949;SDS011;53057;50.988;6.314;2023-04-12T12:29:49;6.07;;;3.07;;
3949;SDS011;53057;50.988;6.314;2023-04-12T12:32:17;9.63;;;2.73;;
3949;SDS011;53057;50.988;6.314;2023-04-12T12:34:54;10.33;;;2.97;;
3949;SDS011;53057;50.988;6.314;2023-04-12T12:37:22;10.27;;;3.10;;
3949;SDS011;53057;50.988;6.314;2023-04-12T12:42:50;15.53;;;3.80;;
3949;SDS011;53057;50.988;6.314;2023-04-12T12:45:18;15.83;;;4.93;;
3949;SDS011;53057;50.988;6.314;2023-04-12T12:47:57;18.50;;;3.60;;
3949;SDS011;53057;50.988;6.314;2023-04-12T12:50:29;14.67;;;3.33;;
3949;SDS011;53057;50.988;6.314;2023-04-12T12:52:56;15.50;;;3.10;;
3949;SDS011;53057;50.988;6.314;2023-04-12T12:55:23;16.77;;;3.30;;
3949;SDS011;53057;50.988;6.314;2023-04-12T12:57:51;17.10;;;2.67;;
3949;SDS011;53057;50.988;6.314;2023-04-12T13:00:33;14.03;;;3.23;;
3949;SDS011;53057;50.988;6.314;2023-04-12T13:02:59;22.77;;;4.07;;
3949;SDS011;53057;50.988;6.314;2023-04-12T13:05:27;19.03;;;3.93;;
3949;SDS011;53057;50.988;6.314;2023-04-12T13:07:53;16.27;;;3.17;;
3949;SDS011;53057;50.988;6.314;2023-04-12T13:10:20;9.23;;;3.00;;
3949;SDS011;53057;50.988;6.314;2023-04-12T13:12:47;22.50;;;3.50;;
3949;SDS011;53057;50.988;6.314;2023-04-12T13:15:13;19.70;;;2.43;;
3949;SDS011;53057;50.988;6.314;2023-04-12T13:17:43;13.53;;;3.23;;
3949;SDS011;53057;50.988;6.314;2023-04-12T13:20:10;11.87;;;2.80;;
3949;SDS011;53057;50.988;6.314;2023-04-12T13:22:36;15.57;;;4.20;;
3949;SDS011;53057;50.988;6.314;2023-04-12T13:25:03;12.33;;;3.40;;
3949;SDS011;53057;50.988;6.314;2023-04-12T13:27:30;9.37;;;1.53;;
3949;SDS011;53057;50.988;6.314;2023-04-12T13:29:57;6.10;;;1.77;;
3949;SDS011;53057;50.988;6.314;2023-04-12T13:32:23;7.70;;;2.40;;
3949;SDS011;53057;50.988;6.314;2023-04-12T13:34:50;24.40;;;10.10;;
3949;SDS011;53057;50.988;6.314;2023-04-12T13:37:17;10.30;;;2.60;;
3949;SDS011;53057;50.988;6.314;2023-04-12T13:39:44;17.27;;;4.20;;
3949;SDS011;53057;50.988;6.314;2023-04-12T13:42:11;10.23;;;4.60;;
3949;SDS011;53057;50.988;6.314;2023-04-12T13:44:39;10.57;;;2.80;;
3949;SDS011;53057;50.988;6.314;2023-04-12T13:47:06;11.30;;;2.90;;
3949;SDS011;53057;50.988;6.314;2023-04-12T13:49:33;7.60;;;3.10;;
3949;SDS011;53057;50.988;6.314;2023-04-12T13:52:01;16.40;;;3.00;;
3949;SDS011;53057;50.988;6.314;2023-04-12T13:54:27;6.70;;;2.80;;
3949;SDS011;53057;50.988;6.314;2023-04-12T13:56:54;10.23;;;2.80;;
3949;SDS011;53057;50.988;6.314;2023-04-12T13:59:23;12.77;;;2.37;;
3949;SDS011;53057;50.988;6.314;2023-04-12T14:01:50;6.17;;;2.30;;
3949;SDS011;53057;50.988;6.314;2023-04-12T14:04:16;6.17;;;2.30;;
3949;SDS011;53057;50.988;6.314;2023-04-12T14:06:43;11.33;;;2.07;;
3949;SDS011;53057;50.988;6.314;2023-04-12T14:09:23;8.67;;;2.63;;
3949;SDS011;53057;50.988;6.314;2023-04-12T14:11:51;5.27;;;2.03;;
3949;SDS011;53057;50.988;6.314;2023-04-12T14:14:20;11.53;;;2.07;;
3949;SDS011;53057;50.988;6.314;2023-04-12T14:16:48;5.67;;;2.47;;
3949;SDS011;53057;50.988;6.314;2023-04-12T14:19:14;5.80;;;2.17;;
3949;SDS011;53057;50.988;6.314;2023-04-12T14:21:42;6.40;;;2.93;;
3949;SDS011;53057;50.988;6.314;2023-04-12T14:24:08;24.33;;;3.20;;
3949;SDS011;53057;50.988;6.314;2023-04-12T14:26:35;8.60;;;2.70;;
3949;SDS011;53057;50.988;6.314;2023-04-12T14:29:02;16.83;;;2.90;;
3949;SDS011;53057;50.988;6.314;2023-04-12T14:31:28;13.20;;;2.43;;
3949;SDS011;53057;50.988;6.314;2023-04-12T14:33:55;3.60;;;1.37;;
3949;SDS011;53057;50.988;6.314;2023-04-12T14:36:22;4.50;;;2.17;;
3949;SDS011;53057;50.988;6.314;2023-04-12T14:38:49;13.20;;;1.87;;
3949;SDS011;53057;50.988;6.314;2023-04-12T14:41:15;1.93;;;1.00;;
3949;SDS011;53057;50.988;6.314;2023-04-12T14:43:42;9.80;;;1.60;;
3949;SDS011;53057;50.988;6.314;2023-04-12T14:46:12;5.90;;;1.40;;
3949;SDS011;53057;50.988;6.314;2023-04-12T14:48:39;7.90;;;1.93;;
3949;SDS011;53057;50.988;6.314;2023-04-12T14:51:06;7.30;;;1.23;;
3949;SDS011;53057;50.988;6.314;2023-04-12T14:53:33;4.90;;;1.70;;
3949;SDS011;53057;50.988;6.314;2023-04-12T14:56:00;5.40;;;1.57;;
3949;SDS011;53057;50.988;6.314;2023-04-12T14:58:28;8.87;;;1.60;;
3949;SDS011;53057;50.988;6.314;2023-04-12T15:00:55;6.00;;;2.57;;
3949;SDS011;53057;50.988;6.314;2023-04-12T15:03:22;2.10;;;1.40;;
3949;SDS011;53057;50.988;6.314;2023-04-12T15:05:49;7.53;;;2.63;;
3949;SDS011;53057;50.988;6.314;2023-04-12T15:08:16;3.13;;;1.50;;
3949;SDS011;53057;50.988;6.314;2023-04-12T15:10:43;8.60;;;1.90;;
3949;SDS011;53057;50.988;6.314;2023-04-12T15:13:10;4.03;;;1.70;;
3949;SDS011;53057;50.988;6.314;2023-04-12T15:15:37;2.37;;;1.10;;
3949;SDS011;53057;50.988;6.314;2023-04-12T15:18:03;3.10;;;1.30;;
3949;SDS011;53057;50.988;6.314;2023-04-12T15:20:31;4.50;;;1.10;;
3949;SDS011;53057;50.988;6.314;2023-04-12T15:22:58;4.70;;;1.00;;
3949;SDS011;53057;50.988;6.314;2023-04-12T15:25:24;0.90;;;0.80;;
3949;SDS011;53057;50.988;6.314;2023-04-12T15:27:51;1.60;;;0.83;;
3949;SDS011;53057;50.988;6.314;2023-04-12T15:30:17;2.53;;;0.97;;
3949;SDS011;53057;50.988;6.314;2023-04-12T15:32:44;1.13;;;0.90;;
3949;SDS011;53057;50.988;6.314;2023-04-12T15:35:12;1.73;;;0.77;;
3949;SDS011;53057;50.988;6.314;2023-04-12T15:37:52;3.60;;;1.30;;